Time;durP1;ratioP1;P1;durP2;ratioP2;P2;SDS_P1;SDS_P2;PMS_P1;PMS_P2;Temp;Humidity;BMP_temperature;BMP_pressure;BME280_temperature;BME280_humidity;BME280_pressure;Samples;Min_cycle;Max_cycle;Signal;HPM_P1;HPM_P2
2021/06/21 00:00:59;;;;;;;9.65;5.18;;;14.60;95.40;;;;;;5028415;28;20068;-85
2021/06/21 00:03:24;;;;;;;8.15;4.90;;;14.50;95.40;;;;;;5038956;28;20036;-85
2021/06/21 00:05:50;;;;;;;9.50;5.07;;;14.60;95.40;;;;;;5055105;28;20063;-84
2021/06/21 00:08:16;;;;;;;10.10;5.47;;;14.50;95.40;;;;;;5057075;28;20659;-84
2021/06/21 00:10:43;;;;;;;10.75;5.70;;;14.50;95.50;;;;;;5055112;28;20036;-84
2021/06/21 00:13:09;;;;;;;11.27;6.10;;;14.50;95.50;;;;;;5037539;28;20029;-85
2021/06/21 00:15:35;;;;;;;10.30;5.97;;;14.60;95.60;;;;;;5071928;28;21721;-86
2021/06/21 00:18:01;;;;;;;10.93;5.70;;;14.50;95.50;;;;;;5049526;28;20043;-86
2021/06/21 00:20:27;;;;;;;10.63;6.20;;;14.50;95.50;;;;;;5012050;28;20055;-84
2021/06/21 00:22:54;;;;;;;9.15;5.25;;;14.50;95.50;;;;;;5038767;28;20511;-85
2021/06/21 00:25:21;;;;;;;14.10;6.03;;;14.50;95.40;;;;;;5042975;28;20222;-86
2021/06/21 00:27:48;;;;;;;10.48;6.10;;;14.50;95.40;;;;;;5059947;28;20032;-85
2021/06/21 00:30:18;;;;;;;9.18;5.63;;;14.40;95.40;;;;;;5050437;28;20114;-85
2021/06/21 00:32:46;;;;;;;10.98;5.05;;;14.40;95.40;;;;;;5024302;28;20032;-90
2021/06/21 00:35:13;;;;;;;9.52;5.43;;;14.40;95.50;;;;;;5075058;28;20081;-85
2021/06/21 00:37:39;;;;;;;8.05;5.18;;;14.40;95.60;;;;;;5061253;28;20211;-84
2021/06/21 00:40:10;;;;;;;11.02;5.18;;;14.40;95.60;;;;;;5042738;28;20036;-84
2021/06/21 00:42:37;;;;;;;11.25;5.30;;;14.40;95.60;;;;;;5042322;28;20429;-84
2021/06/21 00:45:04;;;;;;;12.75;5.20;;;14.40;95.60;;;;;;5039989;28;20028;-85
2021/06/21 00:47:29;;;;;;;8.65;5.15;;;14.30;95.60;;;;;;5008016;28;20044;-83
2021/06/21 00:49:55;;;;;;;11.63;5.55;;;14.30;95.70;;;;;;5042549;28;20040;-82
2021/06/21 00:52:22;;;;;;;12.77;4.72;;;14.30;95.70;;;;;;5030540;28;20116;-84
2021/06/21 00:54:59;;;;;;;10.30;5.03;;;14.30;95.70;;;;;;5043812;28;20115;-86
2021/06/21 00:57:26;;;;;;;11.50;5.20;;;14.30;95.80;;;;;;5061095;28;20036;-84
2021/06/21 00:59:53;;;;;;;9.15;5.55;;;14.30;95.80;;;;;;5064686;28;20037;-86
2021/06/21 01:02:21;;;;;;;10.35;5.28;;;14.20;95.80;;;;;;5043490;28;20047;-86
2021/06/21 01:04:47;;;;;;;12.27;5.47;;;14.20;95.80;;;;;;5045412;28;20743;-84
2021/06/21 01:07:13;;;;;;;12.93;5.43;;;14.20;95.80;;;;;;5043948;28;20115;-85
2021/06/21 01:09:39;;;;;;;10.20;4.78;;;14.20;95.80;;;;;;5042872;28;20182;-86
2021/06/21 01:12:15;;;;;;;10.07;5.10;;;14.20;95.80;;;;;;5024814;28;20051;-85
2021/06/21 01:14:49;;;;;;;14.13;5.53;;;14.20;96.10;;;;;;5058685;28;20086;-83
2021/06/21 01:17:40;;;;;;;17.50;5.35;;;14.20;95.80;;;;;;5055937;28;20486;-86
2021/06/21 01:20:35;;;;;;;12.02;5.25;;;14.20;95.80;;;;;;5057636;28;20517;-85
2021/06/21 01:23:25;;;;;;;11.35;5.38;;;14.20;95.90;;;;;;5076802;28;20044;-85
2021/06/21 01:26:07;;;;;;;9.52;4.97;;;14.20;96.00;;;;;;5073207;28;20517;-85
2021/06/21 01:28:49;;;;;;;9.57;5.20;;;14.20;96.00;;;;;;5072690;28;20487;-86
2021/06/21 01:31:25;;;;;;;10.25;5.35;;;14.20;96.00;;;;;;5057845;28;20037;-85
2021/06/21 01:33:53;;;;;;;11.38;5.55;;;14.20;95.90;;;;;;5026326;28;20213;-84
2021/06/21 01:36:22;;;;;;;10.85;5.40;;;14.20;96.00;;;;;;5078101;28;20567;-87
2021/06/21 01:38:58;;;;;;;12.13;5.85;;;14.20;96.00;;;;;;5064891;28;20028;-85
2021/06/21 01:41:32;;;;;;;10.57;6.35;;;14.20;96.10;;;;;;5055230;28;20051;-86
2021/06/21 01:43:59;;;;;;;13.98;6.47;;;14.20;96.10;;;;;;5073190;28;20479;-85
2021/06/21 01:46:31;;;;;;;12.32;5.50;;;14.20;96.10;;;;;;5048964;28;20044;-86
2021/06/21 01:49:01;;;;;;;10.27;5.28;;;14.20;96.20;;;;;;5045226;28;20045;-85
2021/06/21 01:51:30;;;;;;;9.45;5.22;;;14.20;96.20;;;;;;5061009;28;20032;-84
2021/06/21 01:53:58;;;;;;;10.85;5.22;;;14.20;96.10;;;;;;5058414;28;20051;-85
2021/06/21 01:56:27;;;;;;;10.18;5.28;;;14.20;96.10;;;;;;5054961;28;20126;-87
2021/06/21 01:58:54;;;;;;;10.80;5.53;;;14.20;96.20;;;;;;5057139;28;20055;-85
2021/06/21 02:01:21;;;;;;;7.68;5.28;;;14.10;96.20;;;;;;5063455;28;20036;-84
2021/06/21 02:03:49;;;;;;;10.85;5.20;;;14.10;96.30;;;;;;5059050;28;20036;-87
2021/06/21 02:06:17;;;;;;;9.95;5.10;;;14.10;96.40;;;;;;5040885;28;20548;-87
2021/06/21 02:08:46;;;;;;;9.88;5.35;;;14.00;96.50;;;;;;5060124;28;20028;-87
2021/06/21 02:11:13;;;;;;;10.43;5.70;;;14.00;96.60;;;;;;5061222;28;20027;-82
2021/06/21 02:13:40;;;;;;;11.65;5.97;;;14.00;96.70;;;;;;5059003;28;20028;-85
2021/06/21 02:16:07;;;;;;;12.32;6.38;;;14.00;96.80;;;;;;5027448;28;20111;-85
2021/06/21 02:18:34;;;;;;;13.68;6.63;;;13.90;96.90;;;;;;5028757;28;20074;-85
2021/06/21 02:21:00;;;;;;;13.95;6.20;;;13.90;97.10;;;;;;5040898;28;20122;-89
2021/06/21 02:23:27;;;;;;;12.93;6.95;;;13.90;97.30;;;;;;5048993;28;20917;-85
2021/06/21 02:25:54;;;;;;;14.05;6.82;;;13.90;97.50;;;;;;5074542;28;20467;-86
2021/06/21 02:28:22;;;;;;;13.40;6.13;;;13.80;97.60;;;;;;5023429;28;20532;-88
2021/06/21 02:30:49;;;;;;;13.23;6.80;;;13.80;97.60;;;;;;5039423;28;20143;-85
2021/06/21 02:33:17;;;;;;;12.52;6.80;;;13.80;97.80;;;;;;5042983;28;20047;-84
2021/06/21 02:35:44;;;;;;;9.77;5.93;;;13.80;97.80;;;;;;5044602;28;20028;-84
2021/06/21 02:38:11;;;;;;;12.13;6.60;;;13.80;97.90;;;;;;5077546;28;20137;-85
2021/06/21 02:40:37;;;;;;;13.93;6.53;;;13.70;98.10;;;;;;5046840;28;20464;-86
2021/06/21 02:43:04;;;;;;;12.95;6.40;;;13.70;98.40;;;;;;5044130;28;20120;-84
2021/06/21 02:45:30;;;;;;;12.52;6.07;;;13.70;98.40;;;;;;5061292;28;20046;-84
2021/06/21 02:47:56;;;;;;;10.93;6.53;;;13.70;98.30;;;;;;5042469;28;20055;-85
2021/06/21 02:50:23;;;;;;;12.35;6.32;;;13.60;98.50;;;;;;5027406;28;20068;-84
2021/06/21 02:53:23;;;;;;;10.23;6.78;;;13.60;98.60;;;;;;5033353;28;20117;-86
2021/06/21 02:56:46;;;;;;;12.13;6.63;;;13.70;98.80;;;;;;5073448;28;20540;-86
2021/06/21 02:59:15;;;;;;;8.55;6.10;;;13.60;98.60;;;;;;4999531;28;20396;-82
2021/06/21 03:01:47;;;;;;;14.75;5.95;;;13.60;98.60;;;;;;5001365;28;20314;-84
2021/06/21 03:04:15;;;;;;;9.00;6.03;;;13.60;98.80;;;;;;5020214;28;20035;-88
2021/06/21 03:06:46;;;;;;;17.13;7.20;;;13.60;98.80;;;;;;5056192;28;20191;-84
2021/06/21 03:09:14;;;;;;;13.73;6.93;;;13.50;98.70;;;;;;5019190;28;20097;-85
2021/06/21 03:11:42;;;;;;;12.20;6.80;;;13.50;98.90;;;;;;5043905;28;20051;-83
2021/06/21 03:14:09;;;;;;;10.75;6.50;;;13.50;99.00;;;;;;5060070;28;20037;-83
2021/06/21 03:16:36;;;;;;;8.82;5.85;;;13.50;99.00;;;;;;5059911;28;20120;-85
2021/06/21 03:19:02;;;;;;;14.45;6.57;;;13.50;99.00;;;;;;5043128;28;20494;-87
2021/06/21 03:21:29;;;;;;;12.52;6.57;;;13.50;98.90;;;;;;5041222;28;20028;-84
2021/06/21 03:23:56;;;;;;;12.48;6.38;;;13.50;99.10;;;;;;5048198;28;20027;-86
2021/06/21 03:26:30;;;;;;;14.02;6.70;;;13.50;99.10;;;;;;5059458;28;20029;-83
2021/06/21 03:28:57;;;;;;;14.70;6.63;;;13.50;99.20;;;;;;5045860;28;20541;-85
2021/06/21 03:31:24;;;;;;;15.25;6.47;;;13.50;99.30;;;;;;5042570;28;20427;-88
2021/06/21 03:33:51;;;;;;;15.20;7.47;;;13.50;99.40;;;;;;5028802;28;20553;-84
2021/06/21 03:36:17;;;;;;;19.85;7.05;;;13.50;99.40;;;;;;5025753;28;20048;-82
2021/06/21 03:38:43;;;;;;;12.50;7.00;;;13.50;99.40;;;;;;5045362;28;20036;-85
2021/06/21 03:41:09;;;;;;;17.23;7.30;;;13.50;99.40;;;;;;5058941;28;20471;-85
2021/06/21 03:43:36;;;;;;;12.63;7.07;;;13.50;99.50;;;;;;5048656;28;20080;-83
2021/06/21 03:46:05;;;;;;;14.27;7.15;;;13.50;99.50;;;;;;5074121;28;20437;-85
2021/06/21 03:48:36;;;;;;;;;;;13.50;99.60;;;;;;5058283;28;20046;-86
2021/06/21 03:51:03;;;;;;;11.68;7.22;;;13.50;99.90;;;;;;5059635;28;20278;-86
2021/06/21 03:53:29;;;;;;;14.13;7.25;;;13.50;99.60;;;;;;5041215;28;20051;-86
2021/06/21 03:55:55;;;;;;;12.27;7.22;;;13.50;99.60;;;;;;5061317;28;20119;-83
2021/06/21 03:58:23;;;;;;;12.77;7.50;;;13.50;99.90;;;;;;5072485;28;20039;-85
2021/06/21 04:00:49;;;;;;;13.70;7.28;;;13.50;99.60;;;;;;5078513;28;20498;-87
2021/06/21 04:03:16;;;;;;;15.52;8.30;;;13.50;99.80;;;;;;5076718;28;20150;-85
2021/06/21 04:05:42;;;;;;;14.15;8.68;;;13.50;99.70;;;;;;5061260;28;20346;-83
2021/06/21 04:08:10;;;;;;;19.65;9.50;;;13.50;99.80;;;;;;5042929;28;22204;-83
2021/06/21 04:10:37;;;;;;;15.55;8.45;;;13.50;99.90;;;;;;5062712;28;20032;-85
2021/06/21 04:13:04;;;;;;;17.20;9.43;;;13.50;99.90;;;;;;5051407;28;20161;-84
2021/06/21 04:15:31;;;;;;;12.02;8.63;;;13.50;99.90;;;;;;5061237;28;20111;-83
2021/06/21 04:18:06;;;;;;;15.27;10.07;;;13.50;99.90;;;;;;5048266;28;20534;-84
2021/06/21 04:20:33;;;;;;;21.10;9.30;;;13.50;99.90;;;;;;5062061;28;20036;-84
2021/06/21 04:22:59;;;;;;;14.10;8.57;;;13.50;99.90;;;;;;5047222;28;20317;-85
2021/06/21 04:25:25;;;;;;;23.40;10.02;;;13.50;99.90;;;;;;5048653;28;20051;-85
2021/06/21 04:27:52;;;;;;;17.48;8.73;;;13.50;99.90;;;;;;5048448;28;20048;-84
2021/06/21 04:30:21;;;;;;;18.45;8.85;;;13.50;99.90;;;;;;5054770;28;20077;-84
2021/06/21 04:32:48;;;;;;;23.67;9.55;;;13.50;99.90;;;;;;5078270;28;20036;-87
2021/06/21 04:35:17;;;;;;;18.33;9.27;;;13.50;99.90;;;;;;5064867;28;20116;-84
2021/06/21 04:37:43;;;;;;;17.00;9.07;;;13.50;99.90;;;;;;5063552;28;20426;-87
2021/06/21 04:40:12;;;;;;;20.83;8.27;;;13.50;99.90;;;;;;5045947;28;20032;-83
2021/06/21 04:42:39;;;;;;;21.30;8.65;;;13.50;99.90;;;;;;5046155;28;20028;-85
2021/06/21 04:45:07;;;;;;;19.08;10.10;;;13.50;99.90;;;;;;5042576;28;20052;-86
2021/06/21 04:47:33;;;;;;;18.23;9.90;;;13.50;99.90;;;;;;5030938;28;20043;-87
2021/06/21 04:50:07;;;;;;;23.13;9.43;;;13.50;99.90;;;;;;5043478;28;20036;-88
2021/06/21 04:52:35;;;;;;;22.33;9.68;;;13.50;99.90;;;;;;5061019;28;20127;-86
2021/06/21 04:55:03;;;;;;;18.05;8.80;;;13.50;99.90;;;;;;5044630;28;20582;-86
2021/06/21 04:57:35;;;;;;;20.08;8.88;;;13.50;99.90;;;;;;5044692;28;20140;-85
2021/06/21 05:00:05;;;;;;;25.35;9.40;;;13.50;99.90;;;;;;5056670;28;20035;-86
2021/06/21 05:02:31;;;;;;;17.88;9.35;;;13.50;99.90;;;;;;5076853;28;20479;-88
2021/06/21 05:04:57;;;;;;;26.85;9.02;;;13.50;99.90;;;;;;5058565;28;20028;-87
2021/06/21 05:07:23;;;;;;;17.75;9.05;;;13.40;99.90;;;;;;5063585;28;20028;-86
2021/06/21 05:09:49;;;;;;;16.55;8.77;;;13.40;99.90;;;;;;5042420;28;20048;-86
2021/06/21 05:12:16;;;;;;;24.45;8.93;;;13.40;99.90;;;;;;5049942;28;20039;-85
2021/06/21 05:14:42;;;;;;;17.65;9.38;;;13.50;99.90;;;;;;5066052;28;20032;-85
2021/06/21 05:17:08;;;;;;;17.58;9.07;;;13.40;99.90;;;;;;5054086;28;20043;-87
2021/06/21 05:19:38;;;;;;;16.17;8.38;;;13.40;99.90;;;;;;5044502;28;20133;-86
2021/06/21 05:22:05;;;;;;;16.92;8.38;;;13.50;99.90;;;;;;5035217;28;20111;-85
2021/06/21 05:24:32;;;;;;;22.65;9.25;;;13.50;99.90;;;;;;5047363;28;20336;-87
2021/06/21 05:26:58;;;;;;;19.65;9.52;;;13.50;99.90;;;;;;5042918;28;20098;-87
2021/06/21 05:29:24;;;;;;;14.93;8.80;;;13.50;99.90;;;;;;5043119;28;20032;-87
2021/06/21 05:31:50;;;;;;;19.48;9.35;;;13.50;99.90;;;;;;5053937;28;20555;-85
2021/06/21 05:34:15;;;;;;;17.60;8.30;;;13.40;99.90;;;;;;5029726;28;20031;-86
2021/06/21 05:36:42;;;;;;;22.88;8.80;;;13.40;99.90;;;;;;5059036;28;20333;-84
2021/06/21 05:39:08;;;;;;;22.67;8.02;;;13.40;99.90;;;;;;5041690;28;20029;-86
2021/06/21 05:41:34;;;;;;;14.23;8.15;;;13.40;99.90;;;;;;5041658;28;20117;-88
2021/06/21 05:44:03;;;;;;;17.40;8.38;;;13.40;99.90;;;;;;5062012;28;21794;-87
2021/06/21 05:46:32;;;;;;;15.25;8.13;;;13.40;99.90;;;;;;5043020;28;20047;-89
2021/06/21 05:48:57;;;;;;;17.13;7.95;;;13.40;99.90;;;;;;5050713;28;20024;-85
2021/06/21 05:51:26;;;;;;;14.52;8.60;;;13.40;99.90;;;;;;5044765;28;20028;-86
2021/06/21 05:53:52;;;;;;;18.50;7.80;;;13.40;99.90;;;;;;5060746;28;20036;-86
2021/06/21 05:56:17;;;;;;;20.95;8.77;;;13.40;99.90;;;;;;5014893;28;20475;-83
2021/06/21 05:58:43;;;;;;;19.92;7.93;;;13.40;99.90;;;;;;5046000;28;20047;-86
2021/06/21 06:01:09;;;;;;;17.08;8.70;;;13.40;99.90;;;;;;5028124;28;20497;-86
2021/06/21 06:03:35;;;;;;;16.20;8.13;;;13.40;99.90;;;;;;5044229;28;20719;-84
2021/06/21 06:06:02;;;;;;;19.23;8.10;;;13.40;99.90;;;;;;5058845;28;20032;-86
2021/06/21 06:08:28;;;;;;;19.38;8.50;;;13.40;99.90;;;;;;5037858;28;20042;-86
2021/06/21 06:10:54;;;;;;;19.13;8.70;;;13.40;99.90;;;;;;5032595;28;20032;-94
2021/06/21 06:13:21;;;;;;;18.20;7.95;;;13.40;99.90;;;;;;5044342;28;20035;-85
2021/06/21 06:15:47;;;;;;;22.85;8.25;;;13.40;99.90;;;;;;5038622;28;20040;-87
2021/06/21 06:18:12;;;;;;;16.92;7.68;;;13.40;99.90;;;;;;5016206;28;20044;-87
2021/06/21 06:20:38;;;;;;;20.05;8.20;;;13.50;99.90;;;;;;5043482;28;20036;-87
2021/06/21 06:23:05;;;;;;;16.98;8.30;;;13.50;99.90;;;;;;5034852;28;20036;-85
2021/06/21 06:25:32;;;;;;;20.70;8.02;;;13.40;99.90;;;;;;5064187;28;20033;-89
2021/06/21 06:27:59;;;;;;;14.55;7.88;;;13.50;99.90;;;;;;5049546;28;20293;-88
2021/06/21 06:30:25;;;;;;;17.48;7.95;;;13.50;99.90;;;;;;5028663;28;20113;-86
2021/06/21 06:32:51;;;;;;;21.75;8.30;;;13.50;99.90;;;;;;5049290;28;20128;-85
2021/06/21 06:35:17;;;;;;;18.50;8.20;;;13.50;99.90;;;;;;5051934;28;20035;-84
2021/06/21 06:37:45;;;;;;;18.80;8.70;;;13.50;99.90;;;;;;5055265;28;20551;-88
2021/06/21 06:40:11;;;;;;;20.65;8.50;;;13.50;99.90;;;;;;5041177;28;20043;-86
2021/06/21 06:42:37;;;;;;;16.38;7.22;;;13.50;99.90;;;;;;5032195;28;20063;-87
2021/06/21 06:45:04;;;;;;;12.18;6.88;;;13.50;99.90;;;;;;5050561;28;20471;-86
2021/06/21 06:47:31;;;;;;;15.05;8.15;;;13.50;99.90;;;;;;5059340;28;20040;-82
2021/06/21 06:49:58;;;;;;;16.55;7.07;;;13.60;99.90;;;;;;5048379;28;20035;-82
2021/06/21 06:52:25;;;;;;;15.63;6.88;;;13.60;99.90;;;;;;5018161;28;20042;-87
2021/06/21 06:57:39;;;;;;;17.50;7.47;;;13.60;99.90;;;;;;5024707;28;20140;-88
2021/06/21 07:00:09;;;;;;;14.82;6.97;;;13.60;99.90;;;;;;5045300;28;20035;-89
2021/06/21 07:02:35;;;;;;;18.88;7.75;;;13.50;99.90;;;;;;5069592;28;20402;-88
2021/06/21 07:05:02;;;;;;;15.55;7.05;;;13.50;99.90;;;;;;5030640;28;20809;-87
2021/06/21 07:07:28;;;;;;;13.93;6.97;;;13.50;99.90;;;;;;5019514;28;20063;-84
2021/06/21 07:09:54;;;;;;;12.93;5.85;;;13.50;99.90;;;;;;5019457;28;20410;-86
2021/06/21 07:12:20;;;;;;;15.88;6.47;;;13.50;99.90;;;;;;5047444;28;20046;-85
2021/06/21 07:14:45;;;;;;;13.30;6.35;;;13.50;99.90;;;;;;5031189;28;20036;-88
2021/06/21 07:17:12;;;;;;;15.82;6.20;;;13.50;99.90;;;;;;5032269;28;20039;-83
2021/06/21 07:19:37;;;;;;;12.70;6.10;;;13.50;99.90;;;;;;5034466;28;20035;-86
2021/06/21 07:22:04;;;;;;;16.83;6.45;;;13.50;99.90;;;;;;5018424;28;20036;-89
2021/06/21 07:24:31;;;;;;;12.43;6.15;;;13.50;99.90;;;;;;5031117;28;20060;-84
2021/06/21 07:26:57;;;;;;;10.60;6.15;;;13.50;99.90;;;;;;5046662;28;20105;-84
2021/06/21 07:29:23;;;;;;;13.57;5.90;;;13.40;99.90;;;;;;5013018;28;20071;-89
2021/06/21 07:31:49;;;;;;;9.98;5.10;;;13.40;99.90;;;;;;5033395;28;20042;-84
2021/06/21 07:34:15;;;;;;;15.10;6.35;;;13.40;99.90;;;;;;5050749;28;20043;-84
2021/06/21 07:36:41;;;;;;;11.90;5.78;;;13.40;99.90;;;;;;5062746;28;20032;-87
2021/06/21 07:39:08;;;;;;;12.52;5.68;;;13.40;99.90;;;;;;5035911;28;20111;-86
2021/06/21 07:41:34;;;;;;;13.13;6.00;;;13.40;99.90;;;;;;5030305;28;20040;-89
2021/06/21 07:44:00;;;;;;;12.45;5.32;;;13.40;99.90;;;;;;5030077;28;20040;-87
2021/06/21 07:46:26;;;;;;;18.45;6.15;;;13.40;99.90;;;;;;5044712;28;20123;-87
2021/06/21 07:48:53;;;;;;;10.10;5.28;;;13.40;99.90;;;;;;5033797;28;20040;-88
2021/06/21 07:51:19;;;;;;;13.18;5.72;;;13.40;99.90;;;;;;5031549;28;20044;-84
2021/06/21 07:53:46;;;;;;;10.98;5.95;;;13.30;99.90;;;;;;5051470;28;20040;-86
2021/06/21 07:56:16;;;;;;;19.95;6.20;;;13.40;99.90;;;;;;5023591;28;20040;-84
2021/06/21 07:58:42;;;;;;;16.08;5.90;;;13.30;99.90;;;;;;5051912;28;20410;-88
2021/06/21 08:01:09;;;;;;;13.40;4.93;;;13.30;99.90;;;;;;5041359;28;20475;-84
2021/06/21 08:03:35;;;;;;;14.93;6.05;;;13.40;99.90;;;;;;5070541;28;20101;-86
2021/06/21 08:06:03;;;;;;;16.38;5.85;;;13.30;99.90;;;;;;5034210;28;20269;-86
2021/06/21 08:08:30;;;;;;;12.02;5.85;;;13.30;99.90;;;;;;5045965;28;20040;-84
2021/06/21 08:10:59;;;;;;;10.55;4.72;;;13.30;99.90;;;;;;5066903;28;20039;-85
2021/06/21 08:13:25;;;;;;;17.80;5.50;;;13.30;99.90;;;;;;5033515;28;20048;-87
2021/06/21 08:15:51;;;;;;;17.90;6.28;;;13.30;99.90;;;;;;5036266;28;20047;-89
2021/06/21 08:18:17;;;;;;;13.50;5.57;;;13.30;99.90;;;;;;5054591;28;20512;-84
2021/06/21 08:20:44;;;;;;;13.65;5.72;;;13.30;99.90;;;;;;5012465;28;20550;-85
2021/06/21 08:23:14;;;;;;;11.65;5.50;;;13.30;99.90;;;;;;5042222;28;20228;-85
2021/06/21 08:25:41;;;;;;;16.08;5.57;;;13.30;99.90;;;;;;5046041;28;20047;-89
2021/06/21 08:28:08;;;;;;;12.00;4.72;;;13.30;99.90;;;;;;5044887;28;20597;-84
2021/06/21 08:30:37;;;;;;;9.43;4.47;;;13.30;99.90;;;;;;5034162;28;20052;-86
2021/06/21 08:33:04;;;;;;;11.98;4.80;;;13.20;99.90;;;;;;5050700;28;20040;-87
2021/06/21 08:35:30;;;;;;;12.50;4.97;;;13.20;99.90;;;;;;5032447;28;20052;-87
2021/06/21 08:37:57;;;;;;;14.85;6.07;;;13.20;99.90;;;;;;5040614;28;20052;-87
2021/06/21 08:40:27;;;;;;;13.38;5.47;;;13.20;99.90;;;;;;5039846;28;20040;-88
2021/06/21 08:43:15;;;;;;;12.20;5.78;;;13.10;99.90;;;;;;5039103;28;20498;-85
2021/06/21 08:45:42;;;;;;;12.32;5.10;;;13.10;99.90;;;;;;5051816;28;20043;-83
2021/06/21 08:48:10;;;;;;;15.15;5.97;;;13.20;99.90;;;;;;5050167;28;20175;-85
2021/06/21 08:50:38;;;;;;;15.63;5.78;;;13.20;99.90;;;;;;5065888;28;20081;-85
2021/06/21 08:53:04;;;;;;;14.15;5.53;;;13.20;99.90;;;;;;5028955;28;20080;-84
2021/06/21 08:55:30;;;;;;;9.45;5.25;;;13.20;99.90;;;;;;5032448;28;20550;-84
2021/06/21 08:57:56;;;;;;;23.95;5.85;;;13.10;99.90;;;;;;5062102;28;20044;-84
2021/06/21 09:00:23;;;;;;;14.82;6.50;;;13.10;99.90;;;;;;5034012;28;20039;-84
2021/06/21 09:02:51;;;;;;;18.23;6.80;;;13.20;99.90;;;;;;5056073;28;21229;-87
2021/06/21 09:05:18;;;;;;;16.23;6.32;;;13.10;99.90;;;;;;5045653;28;21295;-87
2021/06/21 09:07:46;;;;;;;13.25;6.68;;;13.20;99.90;;;;;;5047574;28;20048;-85
2021/06/21 09:10:28;;;;;;;17.38;7.13;;;13.10;99.90;;;;;;5052893;28;20506;-82
2021/06/21 09:13:01;;;;;;;19.92;6.75;;;13.20;99.90;;;;;;5050580;28;20402;-86
2021/06/21 09:15:30;;;;;;;19.38;6.25;;;13.20;99.90;;;;;;5069348;28;20047;-84
2021/06/21 09:17:57;;;;;;;20.70;7.43;;;13.20;99.90;;;;;;5049518;28;20200;-85
2021/06/21 09:20:23;;;;;;;29.65;8.23;;;13.20;99.90;;;;;;5034586;28;20326;-86
2021/06/21 09:22:56;;;;;;;23.58;7.90;;;13.20;99.90;;;;;;5055038;28;20044;-84
2021/06/21 09:25:26;;;;;;;20.73;6.93;;;13.20;99.90;;;;;;5035740;28;20035;-83
2021/06/21 09:27:58;;;;;;;15.75;6.47;;;13.20;99.90;;;;;;5035079;28;20091;-85
2021/06/21 09:30:25;;;;;;;16.60;6.93;;;13.20;99.90;;;;;;5038237;28;20054;-85
2021/06/21 09:32:53;;;;;;;17.13;6.63;;;13.20;99.90;;;;;;5034359;28;20066;-86
2021/06/21 09:35:32;;;;;;;17.40;7.25;;;13.20;99.90;;;;;;5041084;28;20055;-83
2021/06/21 09:38:04;;;;;;;16.70;7.35;;;13.20;99.90;;;;;;5052021;28;20040;-84
2021/06/21 09:40:32;;;;;;;21.63;8.45;;;13.20;99.90;;;;;;5050567;28;20064;-85
2021/06/21 09:43:17;;;;;;;23.17;7.82;;;13.30;99.90;;;;;;5055053;28;20039;-84
2021/06/21 09:46:04;;;;;;;15.57;7.55;;;13.30;99.90;;;;;;5022900;28;20171;-84
2021/06/21 09:48:40;;;;;;;20.00;8.73;;;13.40;99.90;;;;;;5033879;28;20040;-86
2021/06/21 09:51:22;;;;;;;18.67;6.60;;;13.40;99.90;;;;;;5028355;28;20043;-83
2021/06/21 09:54:10;;;;;;;11.27;5.40;;;13.40;99.90;;;;;;5046131;28;20852;-85
2021/06/21 09:56:41;;;;;;;12.48;5.80;;;13.40;99.90;;;;;;5054378;28;20087;-85
2021/06/21 09:59:27;;;;;;;23.13;5.55;;;13.40;99.90;;;;;;5049158;28;20047;-83
2021/06/21 10:02:17;;;;;;;13.60;4.32;;;13.50;99.90;;;;;;5065995;28;20108;-84
2021/06/21 10:04:45;;;;;;;11.32;4.35;;;13.50;99.90;;;;;;5048703;28;20047;-84
2021/06/21 10:07:34;;;;;;;15.80;4.53;;;13.50;99.90;;;;;;5060341;28;20044;-82
2021/06/21 10:10:10;;;;;;;12.02;4.13;;;13.50;99.90;;;;;;5030148;28;20063;-89
2021/06/21 10:12:37;;;;;;;8.35;3.45;;;13.50;99.90;;;;;;5049700;28;20043;-83
2021/06/21 10:15:09;;;;;;;8.98;3.85;;;13.40;99.90;;;;;;5063460;28;20093;-83
2021/06/21 10:17:35;;;;;;;10.45;3.65;;;13.40;99.90;;;;;;5049446;28;20044;-83
2021/06/21 10:20:01;;;;;;;12.35;3.60;;;13.40;99.90;;;;;;5063270;28;20036;-84
2021/06/21 10:22:28;;;;;;;8.45;3.63;;;13.40;99.90;;;;;;5015632;28;20126;-84
2021/06/21 10:24:58;;;;;;;8.13;3.25;;;13.40;99.90;;;;;;5048130;28;20044;-83
2021/06/21 10:27:30;;;;;;;8.35;3.83;;;13.40;99.90;;;;;;5048299;28;20043;-86
2021/06/21 10:29:56;;;;;;;7.47;3.35;;;13.30;99.90;;;;;;5061412;28;20047;-85
2021/06/21 10:32:24;;;;;;;10.95;3.78;;;13.30;99.90;;;;;;5048936;28;20040;-83
2021/06/21 10:34:50;;;;;;;9.18;3.30;;;13.40;99.90;;;;;;5061780;28;20036;-87
2021/06/21 10:37:23;;;;;;;7.20;3.10;;;13.40;99.90;;;;;;5049994;28;20163;-86
2021/06/21 10:39:55;;;;;;;7.65;3.45;;;13.40;99.90;;;;;;5045764;28;20024;-84
2021/06/21 10:42:24;;;;;;;7.65;3.47;;;13.40;99.90;;;;;;5049106;28;20340;-85
2021/06/21 10:44:55;;;;;;;9.13;3.35;;;13.40;99.90;;;;;;5053711;28;20115;-84
2021/06/21 10:47:38;;;;;;;13.63;3.70;;;13.40;99.90;;;;;;5062662;28;20032;-84
2021/06/21 10:50:12;;;;;;;11.80;3.20;;;13.40;99.90;;;;;;5062347;28;20036;-86
2021/06/21 10:52:51;;;;;;;9.65;3.20;;;13.40;99.90;;;;;;5049057;28;20032;-84
2021/06/21 10:55:26;;;;;;;8.77;3.60;;;13.40;99.90;;;;;;5050124;28;20093;-84
2021/06/21 10:57:55;;;;;;;11.90;3.20;;;13.40;99.90;;;;;;5061960;28;20486;-84
2021/06/21 11:00:33;;;;;;;7.13;3.40;;;13.40;99.90;;;;;;5045197;28;20084;-85
2021/06/21 11:03:01;;;;;;;11.73;4.25;;;13.50;99.90;;;;;;5065076;28;20028;-86
2021/06/21 11:05:37;;;;;;;11.82;3.17;;;13.40;99.90;;;;;;5007705;28;20040;-82
2021/06/21 11:08:21;;;;;;;8.68;3.13;;;13.40;99.90;;;;;;5050313;28;20089;-87
2021/06/21 11:10:51;;;;;;;8.55;2.70;;;13.40;99.90;;;;;;5044976;28;20048;-85
2021/06/21 11:13:35;;;;;;;6.63;3.17;;;13.40;99.90;;;;;;5046704;28;20043;-88
2021/06/21 11:16:19;;;;;;;7.60;3.38;;;13.40;99.90;;;;;;5063649;28;20036;-89
2021/06/21 11:19:13;;;;;;;6.28;2.85;;;13.40;99.90;;;;;;5031926;28;20037;-86
2021/06/21 11:21:48;;;;;;;12.60;2.88;;;13.40;99.90;;;;;;5067510;28;20379;-84
2021/06/21 11:24:35;;;;;;;8.40;2.60;;;13.40;99.90;;;;;;5036633;28;20775;-88
2021/06/21 11:27:13;;;;;;;6.93;2.70;;;13.30;99.90;;;;;;5048387;28;20060;-86
2021/06/21 11:29:44;;;;;;;6.47;2.97;;;13.40;99.90;;;;;;5064757;28;20044;-86
2021/06/21 11:32:13;;;;;;;13.05;3.30;;;13.30;99.90;;;;;;5034250;28;20062;-86
2021/06/21 11:34:54;;;;;;;12.65;3.00;;;13.40;99.90;;;;;;5051455;28;20051;-87
2021/06/21 11:37:31;;;;;;;8.57;2.55;;;13.40;99.90;;;;;;5049271;28;20051;-84
2021/06/21 11:40:14;;;;;;;7.18;2.80;;;13.40;99.90;;;;;;5050151;28;20414;-86
2021/06/21 11:42:43;;;;;;;8.27;2.92;;;13.40;99.90;;;;;;5053383;28;20047;-85
2021/06/21 11:45:09;;;;;;;7.55;2.55;;;13.40;99.90;;;;;;5061884;28;20032;-84
2021/06/21 11:47:38;;;;;;;12.27;2.97;;;13.40;99.90;;;;;;5046893;28;20041;-86
2021/06/21 11:50:13;;;;;;;10.20;2.83;;;13.40;99.90;;;;;;5061304;28;20234;-83
2021/06/21 11:52:40;;;;;;;11.40;3.08;;;13.40;99.90;;;;;;5058940;28;20450;-87
2021/06/21 11:55:15;;;;;;;7.65;2.88;;;13.40;99.90;;;;;;5027210;28;20043;-84
2021/06/21 11:57:43;;;;;;;7.43;2.70;;;13.40;99.90;;;;;;5061645;28;20051;-87
2021/06/21 12:00:09;;;;;;;8.43;3.60;;;13.40;99.90;;;;;;5028373;28;20035;-84
2021/06/21 12:02:35;;;;;;;17.08;4.05;;;13.40;99.90;;;;;;5049402;28;20561;-85
2021/06/21 12:05:27;;;;;;;7.93;3.08;;;13.50;99.90;;;;;;5031652;28;20054;-88
2021/06/21 12:07:53;;;;;;;7.60;2.70;;;13.50;99.90;;;;;;5026870;28;20796;-86
2021/06/21 12:10:21;;;;;;;5.88;2.47;;;13.50;99.90;;;;;;5027163;28;20036;-86
2021/06/21 12:12:49;;;;;;;9.70;3.05;;;13.50;99.90;;;;;;5057310;28;20036;-84
2021/06/21 12:15:31;;;;;;;8.70;2.90;;;13.50;99.90;;;;;;5051894;28;20062;-84
2021/06/21 12:17:58;;;;;;;8.85;3.08;;;13.50;99.90;;;;;;5041577;28;20332;-83
2021/06/21 12:20:24;;;;;;;10.80;3.55;;;13.50;99.90;;;;;;5026622;28;20064;-84
2021/06/21 12:22:59;;;;;;;6.85;3.35;;;13.50;99.90;;;;;;5047916;28;20185;-88
2021/06/21 12:25:42;;;;;;;9.18;3.03;;;13.50;99.90;;;;;;5058828;28;20445;-85
2021/06/21 12:28:17;;;;;;;9.02;2.95;;;13.50;99.90;;;;;;5047092;28;20135;-86
2021/06/21 12:30:54;;;;;;;7.97;2.90;;;13.60;99.90;;;;;;5047767;28;20517;-87
2021/06/21 12:33:23;;;;;;;7.53;3.05;;;13.60;99.90;;;;;;5043522;28;20043;-85
2021/06/21 12:36:11;;;;;;;15.52;3.17;;;13.60;99.90;;;;;;5058009;28;20032;-85
2021/06/21 12:38:39;;;;;;;13.02;3.08;;;13.60;99.90;;;;;;5043881;28;20047;-84
2021/06/21 12:41:29;;;;;;;11.13;3.15;;;13.60;99.90;;;;;;5061753;28;20097;-87
2021/06/21 12:44:05;;;;;;;6.90;2.95;;;13.60;99.90;;;;;;5063181;28;21273;-84
2021/06/21 12:46:34;;;;;;;10.23;3.00;;;13.60;99.90;;;;;;5032465;28;20103;-86
2021/06/21 12:49:08;;;;;;;6.70;2.53;;;13.60;99.90;;;;;;5050686;28;20044;-89
2021/06/21 12:51:35;;;;;;;11.70;2.47;;;13.50;99.90;;;;;;5045484;28;20079;-86
2021/06/21 12:54:01;;;;;;;12.27;2.88;;;13.50;99.90;;;;;;5029472;28;20431;-84